createdAt,value
2018-11-26T00:00:23.157Z,92.29
2018-11-26T00:02:50.674Z,91.75
2018-11-26T00:05:18.041Z,91.44
2018-11-26T00:07:45.472Z,91.11
2018-11-26T00:10:24.243Z,91.98
2018-11-26T00:12:51.670Z,91.14
2018-11-26T00:15:19.116Z,92.43
2018-11-26T00:17:46.525Z,91.70
2018-11-26T00:20:13.952Z,91.83
2018-11-26T00:22:41.345Z,91.44
2018-11-26T00:25:08.785Z,91.31
2018-11-26T00:27:36.197Z,91.97
2018-11-26T00:30:03.767Z,92.09
2018-11-26T00:32:31.178Z,92.48
2018-11-26T00:34:58.577Z,91.96
2018-11-26T00:37:26.038Z,92.93
2018-11-26T00:39:53.447Z,93.67
2018-11-26T00:42:20.839Z,93.27
2018-11-26T00:44:48.280Z,93.61
2018-11-26T00:47:15.718Z,93.42
2018-11-26T00:49:43.159Z,93.61
2018-11-26T00:52:10.539Z,93.53
2018-11-26T00:54:38.002Z,94.28
2018-11-26T00:57:05.429Z,94.37
2018-11-26T00:59:32.926Z,94.05
2018-11-26T01:02:00.347Z,94.00
2018-11-26T01:04:27.757Z,93.27
2018-11-26T01:06:55.165Z,93.54
2018-11-26T01:09:22.623Z,94.14
2018-11-26T01:11:50.008Z,93.77
2018-11-26T01:14:17.442Z,93.41
2018-11-26T01:16:44.835Z,94.25
2018-11-26T01:19:12.278Z,93.83
2018-11-26T01:21:39.642Z,94.01
2018-11-26T01:24:07.072Z,93.94
2018-11-26T01:26:34.451Z,93.46
2018-11-26T01:29:01.870Z,94.54
2018-11-26T01:31:29.241Z,93.44
2018-11-26T01:33:56.678Z,94.08
2018-11-26T01:36:24.054Z,94.13
2018-11-26T01:38:51.461Z,94.43
2018-11-26T01:41:18.889Z,93.49
2018-11-26T01:43:46.311Z,94.22
2018-11-26T01:46:13.742Z,94.68
2018-11-26T01:48:41.172Z,94.60
2018-11-26T01:51:08.572Z,94.34
2018-11-26T01:53:35.958Z,94.77
2018-11-26T01:56:03.393Z,94.33
2018-11-26T01:58:30.795Z,93.73
2018-11-26T02:00:58.161Z,94.85
2018-11-26T02:03:25.628Z,94.90
2018-11-26T02:05:53.048Z,94.62
2018-11-26T02:08:20.458Z,94.89
2018-11-26T02:10:47.869Z,94.53
2018-11-26T02:13:15.281Z,94.89
2018-11-26T02:15:42.872Z,94.81
2018-11-26T02:18:10.673Z,94.98
2018-11-26T02:20:38.112Z,95.21
2018-11-26T02:23:05.715Z,95.62
2018-11-26T02:25:33.087Z,94.43
2018-11-26T02:28:00.487Z,95.83
2018-11-26T02:30:27.913Z,94.75
2018-11-26T02:32:55.323Z,96.08
2018-11-26T02:35:22.759Z,96.03
2018-11-26T02:37:51.238Z,95.53
2018-11-26T02:40:22.312Z,95.74
2018-11-26T02:42:49.812Z,95.83
2018-11-26T02:45:17.235Z,95.83
2018-11-26T02:47:44.672Z,95.35
2018-11-26T02:50:12.082Z,95.79
2018-11-26T02:52:39.479Z,95.90
2018-11-26T02:55:06.922Z,96.65
2018-11-26T02:57:34.346Z,95.75
2018-11-26T03:00:01.808Z,95.17
2018-11-26T03:02:29.219Z,96.18
2018-11-26T03:04:56.596Z,95.26
2018-11-26T03:07:24.008Z,95.44
2018-11-26T03:09:52.309Z,95.48
2018-11-26T03:12:19.702Z,95.83
2018-11-26T03:14:47.144Z,95.35
2018-11-26T03:17:14.552Z,95.63
2018-11-26T03:19:41.986Z,95.91
2018-11-26T03:22:09.341Z,94.88
2018-11-26T03:24:36.773Z,95.58
2018-11-26T03:27:04.596Z,95.80
2018-11-26T03:29:32.038Z,95.97
2018-11-26T03:31:59.429Z,95.85
2018-11-26T03:34:26.857Z,95.55
2018-11-26T03:36:54.281Z,95.51
2018-11-26T03:39:21.693Z,96.56
2018-11-26T03:41:49.133Z,96.42
2018-11-26T03:44:16.508Z,96.25
2018-11-26T03:46:43.883Z,96.07
2018-11-26T03:49:11.288Z,95.52
2018-11-26T03:51:38.729Z,95.39
2018-11-26T03:54:06.188Z,96.32
2018-11-26T03:56:33.615Z,96.21
2018-11-26T03:59:01.029Z,96.54
2018-11-26T04:01:28.454Z,96.49
2018-11-26T04:03:55.829Z,96.38
2018-11-26T04:06:23.252Z,95.85
2018-11-26T04:08:50.707Z,95.72
2018-11-26T04:11:18.144Z,95.60
2018-11-26T04:13:45.572Z,96.56
2018-11-26T04:16:13.022Z,96.77
2018-11-26T04:18:40.434Z,95.62
2018-11-26T04:21:07.861Z,96.35
2018-11-26T04:23:35.292Z,96.02
2018-11-26T04:26:02.716Z,96.62
2018-11-26T04:28:30.158Z,96.27
2018-11-26T04:30:57.602Z,95.86
2018-11-26T04:33:25.002Z,96.99
2018-11-26T04:35:52.344Z,96.82
2018-11-26T04:38:19.789Z,95.96
2018-11-26T04:40:47.243Z,96.20
2018-11-26T04:43:14.647Z,96.82
2018-11-26T04:45:42.068Z,96.28
2018-11-26T04:48:09.486Z,95.95
2018-11-26T04:50:36.857Z,96.13
2018-11-26T04:53:04.541Z,96.08
2018-11-26T04:55:32.006Z,97.13
2018-11-26T04:57:59.394Z,97.04
2018-11-26T05:00:26.829Z,96.13
2018-11-26T05:02:54.268Z,97.55
2018-11-26T05:05:21.696Z,96.09
2018-11-26T05:07:49.073Z,95.76
2018-11-26T05:10:16.503Z,96.29
2018-11-26T05:12:43.922Z,96.58
2018-11-26T05:15:12.302Z,96.23
2018-11-26T05:17:39.709Z,96.51
2018-11-26T05:20:10.158Z,96.25
2018-11-26T05:22:37.564Z,95.87
2018-11-26T05:25:06.903Z,96.92
2018-11-26T05:27:34.298Z,96.76
2018-11-26T05:30:01.730Z,96.71
2018-11-26T05:32:29.163Z,96.78
2018-11-26T05:34:56.592Z,96.63
2018-11-26T05:37:23.963Z,96.87
2018-11-26T05:39:51.416Z,96.63
2018-11-26T05:42:18.832Z,97.18
2018-11-26T05:44:46.256Z,96.81
2018-11-26T05:47:13.675Z,97.33
2018-11-26T05:49:41.088Z,96.79
2018-11-26T05:52:08.538Z,96.66
2018-11-26T05:54:35.996Z,96.84
2018-11-26T05:57:03.413Z,96.75
2018-11-26T05:59:30.820Z,97.34
2018-11-26T06:01:58.297Z,96.36
2018-11-26T06:04:25.744Z,97.35
2018-11-26T06:06:53.785Z,96.74
2018-11-26T06:09:21.188Z,97.19
2018-11-26T06:11:48.602Z,96.45
2018-11-26T06:14:16.013Z,97.35
2018-11-26T06:16:43.409Z,97.42
2018-11-26T06:19:10.834Z,97.36
2018-11-26T06:21:38.259Z,97.11
2018-11-26T06:24:06.017Z,96.61
2018-11-26T06:26:33.387Z,96.83
2018-11-26T06:29:00.807Z,97.21
2018-11-26T06:31:28.198Z,96.72
2018-11-26T06:33:55.625Z,97.14
2018-11-26T06:36:23.053Z,96.57
2018-11-26T06:38:50.525Z,96.67
2018-11-26T06:41:17.920Z,96.23
2018-11-26T06:43:45.338Z,97.48
2018-11-26T06:46:12.791Z,96.27
2018-11-26T06:48:40.223Z,96.91
2018-11-26T06:51:07.602Z,96.62
2018-11-26T06:53:35.077Z,96.67
2018-11-26T06:56:02.494Z,95.93
2018-11-26T06:58:29.938Z,96.60
2018-11-26T07:00:57.353Z,96.22
2018-11-26T07:03:24.762Z,96.07
2018-11-26T07:05:52.822Z,96.06
2018-11-26T07:08:20.188Z,96.89
2018-11-26T07:10:47.634Z,96.86
2018-11-26T07:13:15.085Z,96.34
2018-11-26T07:15:42.548Z,97.01
2018-11-26T07:18:09.917Z,96.13
2018-11-26T07:20:37.368Z,96.63
2018-11-26T07:23:04.954Z,97.11
2018-11-26T07:25:32.368Z,96.67
2018-11-26T07:27:59.742Z,96.76
2018-11-26T07:30:28.849Z,96.89
2018-11-26T07:32:56.214Z,97.12
2018-11-26T07:35:23.610Z,96.02
2018-11-26T07:37:51.035Z,96.18
2018-11-26T07:40:20.482Z,96.40
2018-11-26T07:42:49.859Z,96.13
2018-11-26T07:45:17.264Z,96.65
2018-11-26T07:47:44.733Z,96.21
2018-11-26T07:50:13.278Z,96.00
2018-11-26T07:52:40.680Z,95.76
2018-11-26T07:55:10.774Z,95.34
2018-11-26T07:57:38.292Z,96.44
2018-11-26T08:00:11.083Z,95.96
2018-11-26T08:02:38.528Z,95.59
2018-11-26T08:05:07.035Z,95.14
2018-11-26T08:07:34.513Z,95.38
2018-11-26T08:10:01.958Z,94.43
2018-11-26T08:12:29.558Z,94.54
2018-11-26T08:14:57.015Z,94.78
2018-11-26T08:17:24.398Z,94.95
2018-11-26T08:19:51.773Z,94.58
2018-11-26T08:22:19.189Z,95.19
2018-11-26T08:24:46.584Z,94.58
2018-11-26T08:27:14.014Z,94.95
2018-11-26T08:29:41.565Z,94.61
2018-11-26T08:32:09.204Z,94.96
2018-11-26T08:34:36.662Z,94.41
2018-11-26T08:37:05.644Z,94.46
2018-11-26T08:39:36.282Z,94.18
2018-11-26T08:42:08.450Z,94.88
2018-11-26T08:44:40.358Z,93.59
2018-11-26T08:47:13.464Z,94.04
2018-11-26T08:49:40.853Z,93.65
2018-11-26T08:52:08.263Z,93.74
2018-11-26T08:54:35.695Z,93.83
2018-11-26T08:57:03.159Z,94.02
2018-11-26T08:59:30.634Z,93.98
2018-11-26T09:02:00.063Z,92.73
2018-11-26T09:04:30.929Z,93.05
2018-11-26T09:06:58.358Z,92.44
2018-11-26T09:09:26.734Z,93.51
2018-11-26T09:11:53.173Z,93.65
2018-11-26T09:14:20.622Z,92.48
2018-11-26T09:16:48.054Z,92.82
2018-11-26T09:19:15.526Z,92.43
2018-11-26T09:21:42.976Z,91.39
2018-11-26T09:24:10.396Z,91.67
2018-11-26T09:26:37.793Z,91.90
2018-11-26T09:29:05.594Z,91.75
2018-11-26T09:31:33.068Z,92.11
2018-11-26T09:34:00.490Z,92.19
2018-11-26T09:36:27.878Z,91.86
2018-11-26T09:38:55.319Z,91.77
2018-11-26T09:41:22.762Z,91.63
2018-11-26T09:43:50.155Z,91.51
2018-11-26T09:46:17.594Z,92.54
2018-11-26T09:48:44.982Z,92.45
2018-11-26T09:51:14.353Z,92.76
2018-11-26T09:53:39.878Z,91.91
2018-11-26T09:56:07.327Z,91.36
2018-11-26T09:58:34.736Z,91.95
2018-11-26T10:01:02.225Z,91.36
2018-11-26T10:03:29.628Z,91.35
2018-11-26T10:05:57.029Z,90.84
2018-11-26T10:08:24.493Z,92.13
2018-11-26T10:10:51.919Z,92.04
2018-11-26T10:13:19.375Z,92.16
2018-11-26T10:15:46.814Z,92.08
2018-11-26T10:18:14.256Z,93.03
2018-11-26T10:20:41.712Z,93.25
2018-11-26T10:23:09.230Z,92.58
2018-11-26T10:25:36.645Z,93.22
2018-11-26T10:28:04.248Z,92.18
2018-11-26T10:30:31.658Z,92.33
2018-11-26T10:32:59.073Z,92.99
2018-11-26T10:35:26.583Z,92.64
2018-11-26T10:37:54.066Z,92.02
2018-11-26T10:40:24.345Z,92.51
2018-11-26T10:42:51.834Z,92.39
2018-11-26T10:45:20.213Z,92.63
2018-11-26T10:47:47.664Z,92.00
2018-11-26T10:50:17.187Z,91.28
2018-11-26T10:52:54.384Z,90.85
2018-11-26T10:55:23.308Z,91.17
2018-11-26T10:57:50.756Z,91.31
2018-11-26T11:00:23.662Z,91.50
2018-11-26T11:02:51.428Z,91.14
2018-11-26T11:05:19.017Z,91.13
2018-11-26T11:07:46.425Z,91.30
2018-11-26T11:10:20.158Z,91.52
2018-11-26T11:12:47.580Z,92.07
2018-11-26T11:15:15.036Z,91.00
2018-11-26T11:17:42.493Z,91.71
2018-11-26T11:20:14.067Z,91.23
2018-11-26T11:22:41.471Z,91.59
2018-11-26T11:25:10.055Z,91.75
2018-11-26T11:27:37.476Z,91.52
2018-11-26T11:30:21.987Z,90.98
2018-11-26T11:32:49.449Z,91.71
2018-11-26T11:35:17.294Z,91.56
2018-11-26T11:37:45.765Z,91.52
2018-11-26T11:40:22.912Z,91.37
2018-11-26T11:42:50.324Z,91.86
2018-11-26T11:45:17.933Z,91.37
2018-11-26T11:47:45.308Z,91.29
2018-11-26T11:50:14.909Z,91.05
2018-11-26T11:52:42.379Z,91.58
2018-11-26T11:55:11.105Z,90.96
2018-11-26T11:57:38.504Z,91.90
2018-11-26T12:00:13.154Z,91.41
2018-11-26T12:02:41.799Z,92.06
2018-11-26T12:05:11.484Z,91.47
2018-11-26T12:07:38.881Z,91.21
2018-11-26T12:10:08.209Z,91.66
2018-11-26T12:12:35.718Z,91.89
2018-11-26T12:15:03.372Z,91.33
2018-11-26T12:17:30.939Z,90.87
2018-11-26T12:19:58.337Z,91.27
2018-11-26T12:22:25.804Z,91.70
2018-11-26T12:24:53.214Z,92.23
2018-11-26T12:27:20.684Z,91.87
2018-11-26T12:29:48.152Z,92.70
2018-11-26T12:32:15.629Z,92.66
2018-11-26T12:34:43.020Z,92.97
2018-11-26T12:37:10.424Z,92.75
2018-11-26T12:39:37.923Z,92.43
2018-11-26T12:42:05.404Z,92.01
2018-11-26T12:44:44.788Z,92.51
2018-11-26T12:47:12.203Z,92.06
2018-11-26T12:49:39.644Z,92.78
2018-11-26T12:52:07.095Z,92.51
2018-11-26T12:54:34.502Z,92.70
2018-11-26T12:57:01.967Z,93.02
2018-11-26T12:59:29.397Z,93.05
2018-11-26T13:01:56.825Z,92.75
2018-11-26T13:04:24.260Z,92.21
2018-11-26T13:06:51.688Z,92.98
2018-11-26T13:09:19.084Z,93.16
2018-11-26T13:11:46.508Z,93.36
2018-11-26T13:14:13.990Z,93.85
2018-11-26T13:16:41.377Z,93.82
2018-11-26T13:19:08.835Z,93.64
2018-11-26T13:21:36.260Z,93.54
2018-11-26T13:24:03.907Z,93.64
2018-11-26T13:26:31.393Z,94.36
2018-11-26T13:28:58.779Z,94.07
2018-11-26T13:31:26.228Z,94.19
2018-11-26T13:33:53.612Z,94.17
2018-11-26T13:36:21.073Z,95.00
2018-11-26T13:38:48.573Z,94.68
2018-11-26T13:41:16.018Z,95.08
2018-11-26T13:43:43.435Z,95.80
2018-11-26T13:46:10.889Z,95.48
2018-11-26T13:48:38.328Z,95.03
2018-11-26T13:51:06.044Z,95.85
2018-11-26T13:53:33.435Z,95.46
2018-11-26T13:56:00.929Z,95.38
2018-11-26T13:58:28.377Z,95.75
2018-11-26T14:00:55.839Z,95.37
2018-11-26T14:03:23.253Z,95.03
2018-11-26T14:05:50.611Z,94.87
2018-11-26T14:08:18.031Z,95.25
2018-11-26T14:10:45.436Z,94.53
2018-11-26T14:13:14.108Z,94.67
2018-11-26T14:15:41.525Z,94.46
2018-11-26T14:18:09.031Z,94.89
2018-11-26T14:20:36.489Z,94.87
2018-11-26T14:23:04.180Z,94.60
2018-11-26T14:25:31.613Z,94.95
2018-11-26T14:27:59.026Z,95.34
2018-11-26T14:30:27.265Z,95.45
2018-11-26T14:32:54.940Z,95.45
2018-11-26T14:35:22.400Z,95.23
2018-11-26T14:37:54.958Z,95.19
2018-11-26T14:40:25.745Z,95.81
2018-11-26T14:42:53.190Z,94.84
2018-11-26T14:45:20.697Z,95.73
2018-11-26T14:47:57.556Z,95.24
2018-11-26T14:50:25.003Z,94.86
2018-11-26T14:52:52.430Z,95.52
2018-11-26T14:55:28.049Z,95.65
2018-11-26T14:57:55.510Z,96.05
2018-11-26T15:00:22.994Z,95.78
2018-11-26T15:02:50.482Z,96.32
2018-11-26T15:05:17.989Z,96.13
2018-11-26T15:07:45.586Z,95.16
2018-11-26T15:10:15.031Z,95.61
2018-11-26T15:12:42.567Z,95.54
2018-11-26T15:15:11.948Z,95.53
2018-11-26T15:17:39.998Z,95.67
2018-11-26T15:20:10.362Z,96.05
2018-11-26T15:22:37.881Z,95.59
2018-11-26T15:25:07.157Z,95.87
2018-11-26T15:27:34.615Z,96.07
2018-11-26T15:30:02.133Z,95.98
2018-11-26T15:32:29.584Z,95.86
2018-11-26T15:34:56.954Z,96.56
2018-11-26T15:37:24.467Z,96.18
2018-11-26T15:39:51.860Z,95.68
2018-11-26T15:42:19.341Z,96.41
2018-11-26T15:44:46.724Z,96.97
2018-11-26T15:47:14.155Z,96.39
2018-11-26T15:49:42.301Z,96.07
2018-11-26T15:52:09.092Z,97.09
2018-11-26T15:54:36.526Z,96.51
2018-11-26T15:57:03.965Z,96.44
2018-11-26T15:59:31.418Z,96.27
2018-11-26T16:01:58.891Z,96.67
2018-11-26T16:04:26.320Z,96.40
2018-11-26T16:06:53.826Z,96.07
2018-11-26T16:09:21.255Z,96.76
2018-11-26T16:11:48.731Z,96.79
2018-11-26T16:14:16.227Z,97.51
2018-11-26T16:16:43.666Z,97.64
2018-11-26T16:19:11.149Z,97.09
2018-11-26T16:21:38.559Z,96.67
2018-11-26T16:24:06.375Z,96.86
2018-11-26T16:26:33.779Z,97.69
2018-11-26T16:29:01.286Z,97.59
2018-11-26T16:31:28.697Z,97.48
2018-11-26T16:33:56.120Z,96.29
2018-11-26T16:36:23.534Z,97.19
2018-11-26T16:38:51.074Z,96.75
2018-11-26T16:41:18.555Z,96.87
2018-11-26T16:43:46.042Z,96.62
2018-11-26T16:46:13.670Z,97.44
2018-11-26T16:48:41.218Z,96.72
2018-11-26T16:51:08.660Z,96.59
2018-11-26T16:53:36.119Z,96.64
2018-11-26T16:56:03.550Z,96.07
2018-11-26T16:58:30.974Z,95.96
2018-11-26T17:00:58.504Z,96.35
2018-11-26T17:03:25.924Z,95.45
2018-11-26T17:05:53.351Z,95.83
2018-11-26T17:08:20.835Z,96.04
2018-11-26T17:10:48.292Z,96.56
2018-11-26T17:13:15.765Z,96.66
2018-11-26T17:15:43.237Z,96.39
2018-11-26T17:18:10.670Z,95.70
2018-11-26T17:20:38.250Z,95.67
2018-11-26T17:23:06.278Z,97.16
2018-11-26T17:25:33.697Z,96.20
2018-11-26T17:28:01.155Z,97.08
2018-11-26T17:30:28.596Z,97.24
2018-11-26T17:33:00.322Z,96.90
2018-11-26T17:35:28.271Z,97.27
2018-11-26T17:37:55.696Z,96.82
2018-11-26T17:40:23.847Z,97.03
2018-11-26T17:42:51.705Z,96.66
2018-11-26T17:45:19.759Z,97.40
2018-11-26T17:47:51.260Z,97.10
2018-11-26T17:50:23.243Z,97.65
2018-11-26T17:52:50.724Z,96.33
2018-11-26T17:55:18.140Z,96.41
2018-11-26T17:57:45.619Z,96.96
2018-11-26T18:00:14.911Z,97.05
2018-11-26T18:02:43.380Z,96.70
2018-11-26T18:05:13.702Z,97.54
2018-11-26T18:07:41.207Z,97.61
2018-11-26T18:10:12.655Z,97.43
2018-11-26T18:12:40.361Z,97.77
2018-11-26T18:15:11.542Z,96.55
2018-11-26T18:17:39.079Z,97.39
2018-11-26T18:20:11.148Z,97.84
2018-11-26T18:22:38.585Z,97.32
2018-11-26T18:25:07.775Z,97.93
2018-11-26T18:27:35.499Z,97.85
2018-11-26T18:30:05.535Z,97.72
2018-11-26T18:32:32.984Z,96.45
2018-11-26T18:35:00.476Z,97.15
2018-11-26T18:37:27.917Z,97.12
2018-11-26T18:39:55.441Z,96.55
2018-11-26T18:42:22.906Z,96.37
2018-11-26T18:44:50.403Z,96.71
2018-11-26T18:47:17.852Z,97.05
2018-11-26T18:49:45.305Z,97.87
2018-11-26T18:52:12.832Z,97.84
2018-11-26T18:54:41.132Z,96.55
2018-11-26T18:57:09.108Z,96.91
2018-11-26T18:59:36.546Z,97.12
2018-11-26T19:02:04.972Z,97.29
2018-11-26T19:04:33.232Z,97.16
2018-11-26T19:07:01.070Z,97.16
2018-11-26T19:09:28.554Z,97.39
2018-11-26T19:11:56.041Z,97.11
2018-11-26T19:14:24.577Z,96.94
2018-11-26T19:16:52.266Z,96.91
2018-11-26T19:19:19.771Z,96.57
2018-11-26T19:21:47.407Z,97.33
2018-11-26T19:24:14.943Z,97.21
2018-11-26T19:26:42.442Z,97.53
2018-11-26T19:29:09.887Z,98.28
2018-11-26T19:31:38.147Z,97.41
2018-11-26T19:34:05.781Z,98.56
2018-11-26T19:36:33.349Z,97.49
2018-11-26T19:39:00.850Z,97.89
2018-11-26T19:41:28.328Z,98.31
2018-11-26T19:43:55.802Z,97.56
2018-11-26T19:46:23.278Z,97.60
2018-11-26T19:48:50.919Z,97.27
2018-11-26T19:51:18.371Z,96.95
2018-11-26T19:53:45.838Z,98.19
2018-11-26T19:56:13.281Z,98.32
2018-11-26T19:58:40.794Z,97.01
2018-11-26T20:01:08.294Z,98.16
2018-11-26T20:03:38.117Z,97.34
2018-11-26T20:06:23.723Z,97.77
2018-11-26T20:08:52.797Z,97.58
2018-11-26T20:11:20.292Z,98.29
2018-11-26T20:13:47.782Z,98.08
2018-11-26T20:16:27.367Z,98.81
2018-11-26T20:18:54.792Z,98.07
2018-11-26T20:21:22.344Z,98.73
2018-11-26T20:23:49.831Z,97.68
2018-11-26T20:26:17.326Z,98.81
2018-11-26T20:28:44.769Z,98.95
2018-11-26T20:31:12.256Z,98.21
2018-11-26T20:33:39.732Z,98.59
2018-11-26T20:36:09.100Z,98.08
2018-11-26T20:38:36.672Z,98.77
2018-11-26T20:41:04.781Z,98.43
2018-11-26T20:43:32.214Z,97.68
2018-11-26T20:45:59.760Z,98.18
2018-11-26T20:48:30.506Z,98.22
2018-11-26T20:50:54.741Z,99.08
2018-11-26T20:53:24.959Z,99.10
2018-11-26T20:55:52.474Z,98.06
2018-11-26T20:58:20.025Z,98.56
2018-11-26T21:00:47.513Z,99.05
2018-11-26T21:03:14.992Z,98.00
2018-11-26T21:05:42.417Z,98.24
2018-11-26T21:08:09.894Z,97.87
2018-11-26T21:10:37.357Z,98.24
2018-11-26T21:13:04.919Z,99.01
2018-11-26T21:15:32.324Z,98.05
2018-11-26T21:18:01.075Z,97.96
2018-11-26T21:20:36.166Z,98.56
2018-11-26T21:23:06.031Z,97.98
2018-11-26T21:25:33.490Z,98.77
2018-11-26T21:28:00.986Z,98.25
2018-11-26T21:30:28.465Z,99.01
2018-11-26T21:32:55.890Z,98.44
2018-11-26T21:35:23.302Z,99.04
2018-11-26T21:37:51.772Z,99.00
2018-11-26T21:40:23.549Z,98.38
2018-11-26T21:42:51.677Z,97.71
2018-11-26T21:45:23.623Z,97.80
2018-11-26T21:47:51.032Z,98.42
2018-11-26T21:50:18.448Z,98.72
2018-11-26T21:52:46.057Z,98.19
2018-11-26T21:55:15.614Z,98.63
2018-11-26T21:57:43.115Z,98.76
2018-11-26T22:00:21.975Z,98.72
2018-11-26T22:02:50.226Z,99.38
2018-11-26T22:05:17.693Z,98.67
2018-11-26T22:07:45.772Z,98.50
2018-11-26T22:10:17.558Z,98.78
2018-11-26T22:12:46.387Z,98.68
2018-11-26T22:15:14.037Z,99.29
2018-11-26T22:17:42.165Z,98.19
2018-11-26T22:20:12.216Z,98.00
2018-11-26T22:22:39.857Z,98.74
2018-11-26T22:25:08.822Z,98.87
2018-11-26T22:27:36.459Z,98.77
2018-11-26T22:30:08.067Z,98.01
2018-11-26T22:32:36.036Z,98.02
2018-11-26T22:35:03.516Z,97.99
2018-11-26T22:37:30.950Z,99.09
2018-11-26T22:39:58.345Z,99.21
2018-11-26T22:42:25.758Z,98.22
2018-11-26T22:44:53.192Z,98.86
2018-11-26T22:47:20.747Z,99.19
2018-11-26T22:49:48.272Z,99.23
2018-11-26T22:52:15.901Z,98.54
2018-11-26T22:54:43.371Z,98.64
2018-11-26T22:57:10.830Z,98.57
2018-11-26T22:59:38.225Z,97.49
2018-11-26T23:02:05.872Z,98.88
2018-11-26T23:04:33.283Z,97.82
2018-11-26T23:07:00.776Z,98.33
2018-11-26T23:09:28.190Z,99.05
2018-11-26T23:11:55.632Z,97.75
2018-11-26T23:14:23.137Z,98.34
2018-11-26T23:16:50.628Z,98.81
2018-11-26T23:19:18.043Z,98.00
2018-11-26T23:21:45.512Z,98.78
2018-11-26T23:24:12.898Z,97.97
2018-11-26T23:26:40.336Z,98.91
2018-11-26T23:29:08.757Z,99.30
2018-11-26T23:31:36.191Z,98.59
2018-11-26T23:34:04.982Z,98.66
2018-11-26T23:36:32.530Z,99.02
2018-11-26T23:39:00.020Z,98.46
2018-11-26T23:41:27.905Z,98.86
2018-11-26T23:43:55.353Z,98.54
2018-11-26T23:46:23.119Z,98.03
2018-11-26T23:48:50.585Z,97.96
2018-11-26T23:51:18.640Z,98.92
2018-11-26T23:53:46.164Z,97.75
2018-11-26T23:56:13.611Z,98.82
2018-11-26T23:58:41.972Z,98.36
